createdAt,value
2022-10-09T00:01:22.817Z,11.05
2022-10-09T00:03:51.355Z,11.17
2022-10-09T00:06:24.812Z,11.01
2022-10-09T00:08:52.731Z,11.06
2022-10-09T00:11:28.479Z,11.07
2022-10-09T00:13:56.630Z,11.02
2022-10-09T00:16:24.332Z,10.97
2022-10-09T00:18:53.271Z,10.90
2022-10-09T00:21:32.408Z,11.03
2022-10-09T00:24:02.731Z,11.01
2022-10-09T00:26:30.268Z,10.90
2022-10-09T00:28:57.952Z,10.95
2022-10-09T00:31:25.679Z,10.91
2022-10-09T00:33:53.361Z,10.89
2022-10-09T00:36:23.928Z,10.97
2022-10-09T00:38:51.901Z,11.01
2022-10-09T00:41:25.165Z,11.01
2022-10-09T00:43:57.356Z,11.02
2022-10-09T00:46:42.151Z,10.93
2022-10-09T00:49:22.116Z,10.95
2022-10-09T00:51:51.379Z,10.82
2022-10-09T00:54:22.970Z,10.80
2022-10-09T00:56:51.115Z,10.88
2022-10-09T00:59:19.665Z,10.89
2022-10-09T01:01:47.258Z,10.92
2022-10-09T01:04:15.315Z,10.87
2022-10-09T01:07:07.237Z,10.89
2022-10-09T01:10:03.631Z,10.78
2022-10-09T01:12:52.117Z,10.96
2022-10-09T01:15:39.279Z,10.89
2022-10-09T01:18:36.281Z,10.84
2022-10-09T01:21:17.073Z,10.85
2022-10-09T01:24:06.067Z,10.88
2022-10-09T01:26:56.542Z,10.86
2022-10-09T01:29:27.061Z,10.74
2022-10-09T01:31:56.138Z,10.67
2022-10-09T01:34:24.239Z,10.70
2022-10-09T01:36:52.895Z,10.74
2022-10-09T01:39:22.819Z,10.67
2022-10-09T01:41:52.543Z,10.73
2022-10-09T01:44:23.327Z,10.75
2022-10-09T01:46:51.027Z,10.75
2022-10-09T01:49:39.338Z,10.74
2022-10-09T01:52:48.473Z,10.78
2022-10-09T01:55:35.930Z,10.70
2022-10-09T01:58:18.104Z,10.67
2022-10-09T02:01:16.662Z,10.56
2022-10-09T02:03:48.558Z,10.53
2022-10-09T02:06:18.019Z,10.52
2022-10-09T02:08:51.542Z,10.46
2022-10-09T02:11:19.418Z,10.51
2022-10-09T02:13:48.413Z,10.54
2022-10-09T02:16:15.787Z,10.55
2022-10-09T02:18:53.931Z,10.44
2022-10-09T02:21:24.737Z,10.30
2022-10-09T02:23:55.071Z,10.32
2022-10-09T02:26:23.220Z,10.26
2022-10-09T02:28:51.504Z,10.30
2022-10-09T02:31:30.356Z,10.37
2022-10-09T02:34:00.178Z,10.37
2022-10-09T02:36:28.512Z,10.38
2022-10-09T02:38:56.504Z,10.34
2022-10-09T02:41:24.778Z,10.35
2022-10-09T02:43:52.619Z,10.41
2022-10-09T02:46:20.219Z,10.47
2022-10-09T02:48:47.718Z,10.38
2022-10-09T02:51:15.805Z,10.36
2022-10-09T02:53:43.707Z,10.33
2022-10-09T02:56:11.420Z,10.41
2022-10-09T02:58:39.662Z,10.32
2022-10-09T03:01:07.242Z,10.37
2022-10-09T03:03:34.745Z,10.37
2022-10-09T03:06:05.464Z,10.35
2022-10-09T03:08:33.175Z,10.34
2022-10-09T03:11:00.592Z,10.38
2022-10-09T03:13:28.107Z,10.42
2022-10-09T03:15:55.563Z,10.39
2022-10-09T03:18:23.066Z,10.45
2022-10-09T03:20:50.445Z,10.44
2022-10-09T03:23:17.909Z,10.45
2022-10-09T03:25:45.271Z,10.40
2022-10-09T03:28:15.267Z,10.34
2022-10-09T03:30:42.796Z,10.45
2022-10-09T03:33:10.172Z,10.40
2022-10-09T03:35:37.619Z,10.41
2022-10-09T03:38:05.027Z,10.41
2022-10-09T03:40:32.544Z,10.42
2022-10-09T03:42:59.943Z,10.47
2022-10-09T03:45:27.398Z,10.49
2022-10-09T03:47:54.802Z,10.46
2022-10-09T03:50:22.235Z,10.53
2022-10-09T03:52:49.900Z,10.51
2022-10-09T03:55:17.597Z,10.52
2022-10-09T03:57:44.998Z,10.49
2022-10-09T04:00:13.025Z,10.50
2022-10-09T04:02:40.497Z,10.53
2022-10-09T04:05:08.646Z,10.51
2022-10-09T04:07:36.028Z,10.58
2022-10-09T04:10:04.427Z,10.54
2022-10-09T04:12:31.818Z,10.56
2022-10-09T04:14:59.310Z,10.55
2022-10-09T04:17:26.843Z,10.53
2022-10-09T04:19:54.208Z,10.53
2022-10-09T04:22:21.611Z,10.48
2022-10-09T04:24:49.071Z,10.60
2022-10-09T04:27:16.882Z,10.65
2022-10-09T04:29:44.311Z,10.77
2022-10-09T04:32:11.728Z,10.76
2022-10-09T04:34:39.233Z,10.77
2022-10-09T04:37:06.666Z,10.83
2022-10-09T04:39:34.047Z,10.90
2022-10-09T04:42:01.458Z,10.94
2022-10-09T04:44:28.898Z,10.93
2022-10-09T04:46:56.326Z,10.77
2022-10-09T04:49:23.732Z,10.80
2022-10-09T04:51:51.249Z,10.78
2022-10-09T04:54:18.747Z,10.80
2022-10-09T04:56:46.177Z,10.90
2022-10-09T04:59:13.644Z,10.90
2022-10-09T05:01:41.190Z,10.93
2022-10-09T05:04:09.231Z,10.90
2022-10-09T05:06:36.663Z,10.94
2022-10-09T05:09:04.381Z,11.06
2022-10-09T05:11:31.784Z,11.22
2022-10-09T05:13:59.776Z,11.29
2022-10-09T05:16:29.255Z,11.37
2022-10-09T05:18:59.083Z,11.57
2022-10-09T05:21:27.886Z,11.74
2022-10-09T05:23:55.779Z,11.94
2022-10-09T05:26:25.053Z,12.19
2022-10-09T05:28:52.780Z,12.48
2022-10-09T05:31:25.921Z,12.64
2022-10-09T05:33:55.119Z,12.86
2022-10-09T05:36:22.655Z,13.07
2022-10-09T05:38:53.043Z,13.26
2022-10-09T05:41:22.761Z,13.45
2022-10-09T05:43:50.430Z,13.58
2022-10-09T05:46:19.444Z,13.76
2022-10-09T05:48:53.259Z,13.93
2022-10-09T05:51:23.704Z,14.11
2022-10-09T05:53:51.445Z,14.31
2022-10-09T05:56:24.857Z,14.37
2022-10-09T05:58:55.235Z,14.28
2022-10-09T06:01:24.914Z,14.47
2022-10-09T06:03:55.695Z,14.50
2022-10-09T06:06:25.546Z,14.46
2022-10-09T06:08:53.665Z,14.50
2022-10-09T06:11:28.462Z,14.83
2022-10-09T06:13:56.656Z,15.10
2022-10-09T06:16:26.991Z,15.27
2022-10-09T06:18:56.004Z,15.58
2022-10-09T06:21:25.437Z,15.83
2022-10-09T06:23:55.858Z,16.14
2022-10-09T06:26:24.582Z,16.33
2022-10-09T06:28:53.150Z,16.41
2022-10-09T06:31:25.579Z,16.53
2022-10-09T06:33:54.211Z,16.70
2022-10-09T06:36:25.188Z,16.95
2022-10-09T06:38:53.809Z,17.07
2022-10-09T06:41:26.640Z,17.26
2022-10-09T06:44:04.415Z,17.47
2022-10-09T06:46:34.871Z,17.61
2022-10-09T06:49:03.842Z,17.76
2022-10-09T06:51:33.148Z,17.85
2022-10-09T06:54:02.695Z,17.74
2022-10-09T06:56:32.080Z,17.40
2022-10-09T06:59:01.405Z,17.09
2022-10-09T07:01:32.232Z,17.02
2022-10-09T07:04:03.011Z,16.90
2022-10-09T07:06:32.049Z,16.90
2022-10-09T07:09:05.485Z,16.83
2022-10-09T07:11:38.423Z,16.82
2022-10-09T07:14:09.716Z,16.75
2022-10-09T07:16:39.945Z,16.81
2022-10-09T07:19:11.290Z,16.93
2022-10-09T07:21:41.504Z,17.12
2022-10-09T07:24:09.538Z,17.20
2022-10-09T07:26:39.559Z,17.31
2022-10-09T07:29:09.220Z,17.21
2022-10-09T07:31:36.822Z,17.40
2022-10-09T07:34:06.349Z,17.67
2022-10-09T07:36:34.194Z,17.83
2022-10-09T07:39:02.714Z,17.90
2022-10-09T07:41:30.818Z,17.91
2022-10-09T07:43:58.729Z,17.80
2022-10-09T07:46:32.234Z,17.66
2022-10-09T07:49:02.078Z,17.44
2022-10-09T07:51:30.527Z,17.42
2022-10-09T07:54:00.083Z,17.39
2022-10-09T07:56:33.190Z,17.64
2022-10-09T07:59:26.859Z,18.15
2022-10-09T08:01:54.407Z,18.01
2022-10-09T08:04:22.091Z,18.21
2022-10-09T08:06:49.827Z,18.91
2022-10-09T08:09:18.492Z,20.06
2022-10-09T08:11:45.971Z,21.19
2022-10-09T08:14:19.015Z,21.72
2022-10-09T08:16:48.275Z,22.34
2022-10-09T08:19:15.825Z,22.93
2022-10-09T08:21:43.370Z,23.24
2022-10-09T08:24:11.666Z,23.91
2022-10-09T08:26:39.143Z,24.67
2022-10-09T08:29:13.828Z,25.22
2022-10-09T08:31:43.580Z,25.72
2022-10-09T08:34:12.171Z,26.11
2022-10-09T08:36:39.675Z,26.33
2022-10-09T08:39:07.219Z,26.49
2022-10-09T08:41:56.330Z,27.19
2022-10-09T08:44:50.482Z,27.11
2022-10-09T08:47:42.963Z,27.24
2022-10-09T08:50:16.687Z,27.55
2022-10-09T08:52:53.322Z,27.85
2022-10-09T08:55:27.568Z,27.78
2022-10-09T08:58:00.069Z,27.96
2022-10-09T09:00:46.159Z,28.16
2022-10-09T09:03:35.179Z,28.20
2022-10-09T09:06:46.432Z,28.94
2022-10-09T09:09:25.740Z,29.22
2022-10-09T09:12:17.383Z,30.05
2022-10-09T09:15:07.165Z,29.42
2022-10-09T09:17:50.231Z,29.25
2022-10-09T09:20:48.319Z,30.15
2022-10-09T09:23:16.661Z,30.90
2022-10-09T09:25:46.320Z,31.29
2022-10-09T09:28:16.964Z,31.12
2022-10-09T09:31:13.477Z,31.49
2022-10-09T09:33:53.214Z,30.87
2022-10-09T09:36:23.212Z,29.82
2022-10-09T09:39:36.266Z,29.97
2022-10-09T09:41:41.358Z,30.21
2022-10-09T09:44:13.813Z,29.95
2022-10-09T09:46:42.392Z,29.62
2022-10-09T09:49:21.480Z,30.28
2022-10-09T09:51:50.000Z,29.74
2022-10-09T09:54:26.744Z,30.24
2022-10-09T09:57:12.964Z,30.37
2022-10-09T09:59:44.043Z,31.01
2022-10-09T10:02:17.653Z,31.55
2022-10-09T10:05:06.525Z,31.43
2022-10-09T10:07:38.999Z,31.46
2022-10-09T10:10:08.168Z,32.01
2022-10-09T10:12:53.032Z,31.95
2022-10-09T10:15:27.459Z,30.84
2022-10-09T10:18:07.568Z,30.28
2022-10-09T10:20:54.996Z,30.36
2022-10-09T10:23:33.458Z,30.77
2022-10-09T10:26:15.091Z,31.18
2022-10-09T10:29:20.786Z,31.84
2022-10-09T10:31:59.727Z,31.99
2022-10-09T10:34:32.161Z,30.91
2022-10-09T10:37:06.221Z,29.43
2022-10-09T10:39:49.639Z,28.29
2022-10-09T10:42:32.141Z,27.32
2022-10-09T10:45:22.640Z,26.05
2022-10-09T10:47:54.400Z,25.16
2022-10-09T10:50:26.616Z,24.37
2022-10-09T10:53:20.435Z,23.74
2022-10-09T10:55:53.013Z,23.42
2022-10-09T10:58:30.719Z,23.78
2022-10-09T11:01:27.691Z,23.78
2022-10-09T11:04:39.903Z,23.76
2022-10-09T11:07:31.790Z,23.52
2022-10-09T11:10:17.787Z,22.89
2022-10-09T11:12:50.913Z,22.40
2022-10-09T11:15:21.397Z,22.31
2022-10-09T11:18:04.219Z,22.50
2022-10-09T11:21:04.203Z,23.00
2022-10-09T11:23:37.559Z,23.13
2022-10-09T11:26:31.064Z,22.92
2022-10-09T11:29:02.169Z,22.82
2022-10-09T11:31:35.912Z,23.01
2022-10-09T11:34:09.748Z,22.58
2022-10-09T11:36:42.391Z,21.93
2022-10-09T11:39:20.517Z,21.61
2022-10-09T11:41:51.338Z,21.16
2022-10-09T11:44:24.866Z,20.56
2022-10-09T11:47:02.893Z,20.15
2022-10-09T11:50:10.336Z,19.91
2022-10-09T11:52:58.896Z,19.49
2022-10-09T11:55:31.973Z,19.32
2022-10-09T11:58:26.133Z,19.21
2022-10-09T12:00:56.484Z,18.79
2022-10-09T12:03:35.961Z,18.60
2022-10-09T12:06:14.930Z,18.49
2022-10-09T12:08:54.964Z,18.33
2022-10-09T12:11:23.762Z,18.24
2022-10-09T12:13:56.169Z,18.22
2022-10-09T12:16:46.118Z,18.36
2022-10-09T12:19:23.426Z,18.18
2022-10-09T12:21:57.136Z,18.06
2022-10-09T12:24:27.979Z,17.91
2022-10-09T12:26:59.842Z,17.85
2022-10-09T12:29:50.799Z,17.90
2022-10-09T12:32:26.979Z,17.70
2022-10-09T12:34:55.819Z,17.60
2022-10-09T12:37:33.928Z,17.65
2022-10-09T12:40:26.863Z,17.70
2022-10-09T12:42:56.482Z,17.57
2022-10-09T12:45:31.171Z,17.51
2022-10-09T12:48:01.054Z,17.35
2022-10-09T12:50:33.526Z,17.34
2022-10-09T12:53:04.825Z,17.30
2022-10-09T12:55:34.941Z,17.29
2022-10-09T12:58:18.699Z,17.29
2022-10-09T13:00:50.430Z,17.24
2022-10-09T13:03:23.672Z,17.27
2022-10-09T13:05:52.185Z,17.22
2022-10-09T13:08:26.818Z,17.12
2022-10-09T13:10:55.656Z,16.94
2022-10-09T13:13:26.895Z,16.78
2022-10-09T13:16:07.006Z,16.71
2022-10-09T13:18:34.502Z,16.52
2022-10-09T13:21:24.546Z,16.36
2022-10-09T13:23:52.524Z,16.20
2022-10-09T13:26:28.732Z,16.06
2022-10-09T13:28:58.491Z,15.92
2022-10-09T13:31:26.601Z,15.76
2022-10-09T13:33:54.237Z,15.77
2022-10-09T13:36:21.732Z,15.69
2022-10-09T13:38:49.534Z,15.46
2022-10-09T13:41:23.788Z,15.45
2022-10-09T13:43:53.740Z,15.37
2022-10-09T13:46:21.300Z,15.24
2022-10-09T13:48:48.749Z,15.09
2022-10-09T13:51:16.196Z,15.01
2022-10-09T13:53:43.601Z,14.89
2022-10-09T13:56:11.183Z,14.73
2022-10-09T13:58:38.639Z,14.58
2022-10-09T14:01:08.801Z,14.54
2022-10-09T14:03:36.670Z,14.57
2022-10-09T14:06:04.450Z,14.55
2022-10-09T14:08:32.221Z,14.53
2022-10-09T14:11:00.927Z,14.49
2022-10-09T14:13:28.902Z,14.42
2022-10-09T14:15:56.339Z,14.45
2022-10-09T14:18:23.931Z,14.42
2022-10-09T14:20:51.412Z,14.41
2022-10-09T14:23:18.856Z,14.39
2022-10-09T14:25:46.373Z,14.39
2022-10-09T14:28:13.904Z,14.40
2022-10-09T14:30:42.657Z,14.35
2022-10-09T14:33:10.249Z,14.34
2022-10-09T14:35:38.374Z,14.38
2022-10-09T14:38:05.858Z,14.32
2022-10-09T14:40:33.282Z,14.26
2022-10-09T14:43:00.819Z,14.17
2022-10-09T14:45:29.139Z,14.11
2022-10-09T14:47:57.104Z,14.01
2022-10-09T14:50:24.569Z,14.01
2022-10-09T14:52:52.441Z,13.94
2022-10-09T14:55:20.058Z,13.87
2022-10-09T14:57:47.559Z,13.82
2022-10-09T15:00:15.461Z,13.76
2022-10-09T15:05:15.322Z,13.65
2022-10-09T15:07:43.479Z,13.60
2022-10-09T15:10:12.409Z,13.57
2022-10-09T15:12:40.632Z,13.52
2022-10-09T15:15:08.638Z,13.44
2022-10-09T15:17:36.233Z,13.43
2022-10-09T15:20:03.951Z,13.39
2022-10-09T15:22:31.374Z,13.39
2022-10-09T15:24:58.910Z,13.35
2022-10-09T15:27:26.477Z,13.27
2022-10-09T15:29:53.985Z,13.31
2022-10-09T15:32:21.499Z,13.31
2022-10-09T15:34:49.062Z,13.18
2022-10-09T15:37:16.586Z,13.22
2022-10-09T15:39:44.116Z,13.24
2022-10-09T15:42:11.602Z,13.20
2022-10-09T15:44:41.669Z,13.18
2022-10-09T15:47:09.336Z,13.16
2022-10-09T15:49:36.763Z,13.14
2022-10-09T15:52:04.382Z,13.12
2022-10-09T15:54:31.892Z,13.18
2022-10-09T15:56:59.453Z,13.14
2022-10-09T15:59:27.010Z,13.17
2022-10-09T16:01:54.492Z,13.19
2022-10-09T16:04:22.050Z,13.15
2022-10-09T16:06:49.563Z,13.09
2022-10-09T16:09:17.345Z,13.17
2022-10-09T16:11:44.854Z,13.12
2022-10-09T16:14:12.367Z,13.06
2022-10-09T16:16:39.829Z,13.05
2022-10-09T16:19:07.763Z,13.14
2022-10-09T16:21:35.248Z,13.11
2022-10-09T16:24:03.040Z,13.15
2022-10-09T16:26:30.579Z,13.14
2022-10-09T16:29:00.569Z,13.18
2022-10-09T16:31:32.005Z,13.13
2022-10-09T16:33:59.635Z,13.09
2022-10-09T16:36:27.691Z,13.13
2022-10-09T16:38:56.446Z,13.09
2022-10-09T16:41:24.427Z,13.11
2022-10-09T16:43:54.842Z,13.09
2022-10-09T16:46:22.748Z,13.10
2022-10-09T16:48:52.072Z,13.08
2022-10-09T16:51:24.999Z,13.04
2022-10-09T16:53:55.007Z,13.07
2022-10-09T16:56:25.161Z,13.02
2022-10-09T16:58:55.783Z,13.04
2022-10-09T17:01:24.348Z,13.01
2022-10-09T17:03:54.446Z,12.98
2022-10-09T17:06:25.015Z,12.92
2022-10-09T17:08:54.694Z,12.96
2022-10-09T17:11:22.926Z,12.91
2022-10-09T17:13:50.552Z,12.89
2022-10-09T17:16:21.804Z,12.85
2022-10-09T17:18:50.353Z,12.84
2022-10-09T17:21:19.081Z,12.80
2022-10-09T17:23:47.224Z,12.77
2022-10-09T17:26:19.804Z,12.71
2022-10-09T17:28:48.025Z,12.73
2022-10-09T17:31:22.089Z,12.68
2022-10-09T17:33:55.533Z,12.65
2022-10-09T17:36:26.029Z,12.71
2022-10-09T17:38:53.887Z,12.71
2022-10-09T17:41:26.485Z,12.73
2022-10-09T17:43:55.610Z,12.68
2022-10-09T17:46:24.146Z,12.63
2022-10-09T17:48:53.494Z,12.61
2022-10-09T17:51:25.469Z,12.60
2022-10-09T17:53:54.556Z,12.61
2022-10-09T17:56:22.444Z,12.61
2022-10-09T17:58:50.301Z,12.58
2022-10-09T18:01:18.362Z,12.60
2022-10-09T18:03:46.184Z,12.53
2022-10-09T18:06:18.792Z,12.60
2022-10-09T18:08:47.029Z,12.57
2022-10-09T18:11:16.893Z,12.54
2022-10-09T18:13:45.803Z,12.49
2022-10-09T18:16:16.459Z,12.49
2022-10-09T18:18:44.899Z,12.45
2022-10-09T18:21:17.022Z,12.42
2022-10-09T18:23:46.309Z,12.40
2022-10-09T18:26:17.056Z,12.42
2022-10-09T18:28:48.225Z,12.38
2022-10-09T18:31:19.504Z,12.40
2022-10-09T18:33:47.356Z,12.35
2022-10-09T18:36:20.558Z,12.42
2022-10-09T18:38:53.913Z,12.41
2022-10-09T18:41:23.258Z,12.46
2022-10-09T18:43:51.711Z,12.46
2022-10-09T18:46:25.980Z,12.45
2022-10-09T18:48:55.262Z,12.46
2022-10-09T18:51:26.547Z,12.42
2022-10-09T18:53:58.522Z,12.50
2022-10-09T18:56:26.247Z,12.49
2022-10-09T18:58:53.725Z,12.49
2022-10-09T19:01:21.285Z,12.49
2022-10-09T19:03:50.166Z,12.48
2022-10-09T19:06:19.295Z,12.46
2022-10-09T19:08:47.121Z,12.47
2022-10-09T19:11:17.074Z,12.47
2022-10-09T19:13:45.342Z,12.41
2022-10-09T19:16:12.937Z,12.39
2022-10-09T19:18:40.576Z,12.44
2022-10-09T19:21:13.415Z,12.46
2022-10-09T19:23:41.547Z,12.45
2022-10-09T19:26:09.090Z,12.43
2022-10-09T19:28:38.680Z,12.47
2022-10-09T19:31:08.146Z,12.39
2022-10-09T19:33:36.051Z,12.50
2022-10-09T19:36:04.233Z,12.42
2022-10-09T19:38:31.902Z,12.47
2022-10-09T19:41:11.377Z,12.53
2022-10-09T19:43:39.006Z,12.43
2022-10-09T19:46:09.614Z,12.46
2022-10-09T19:48:37.356Z,12.51
2022-10-09T19:51:09.755Z,12.51
2022-10-09T19:53:37.702Z,12.52
2022-10-09T19:56:33.155Z,12.62
2022-10-09T19:59:04.216Z,12.42
2022-10-09T20:01:35.488Z,12.46
2022-10-09T20:04:07.909Z,12.53
2022-10-09T20:06:40.955Z,12.56
2022-10-09T20:09:10.023Z,12.50
2022-10-09T20:11:37.927Z,12.53
2022-10-09T20:14:06.173Z,12.48
2022-10-09T20:16:33.886Z,12.56
2022-10-09T20:19:02.547Z,12.51
2022-10-09T20:21:32.633Z,12.57
2022-10-09T20:24:01.410Z,12.52
2022-10-09T20:26:31.514Z,12.55
2022-10-09T20:29:01.973Z,12.53
2022-10-09T20:31:30.774Z,12.55
2022-10-09T20:33:58.582Z,12.55
2022-10-09T20:36:32.603Z,12.55
2022-10-09T20:39:03.248Z,12.56
2022-10-09T20:41:31.961Z,12.53
2022-10-09T20:44:01.284Z,12.61
2022-10-09T20:46:31.320Z,12.59
2022-10-09T20:48:59.061Z,12.67
2022-10-09T20:51:29.447Z,12.63
2022-10-09T20:54:01.302Z,12.67
2022-10-09T20:56:30.845Z,12.65
2022-10-09T20:59:00.048Z,12.62
2022-10-09T21:01:28.808Z,12.58
2022-10-09T21:03:59.132Z,12.59
2022-10-09T21:06:27.125Z,12.65
2022-10-09T21:08:55.255Z,12.64
2022-10-09T21:11:25.840Z,12.62
2022-10-09T21:13:53.642Z,12.64
2022-10-09T21:16:24.204Z,12.71
2022-10-09T21:18:57.612Z,12.69
2022-10-09T21:21:25.663Z,12.67
2022-10-09T21:23:54.908Z,12.65
2022-10-09T21:26:23.457Z,12.64
2022-10-09T21:28:55.458Z,12.69
2022-10-09T21:31:28.674Z,12.73
2022-10-09T21:33:57.523Z,12.71
2022-10-09T21:36:36.814Z,12.74
2022-10-09T21:39:06.449Z,12.72
2022-10-09T21:41:35.330Z,12.73
2022-10-09T21:44:03.670Z,12.71
2022-10-09T21:46:31.238Z,12.73
2022-10-09T21:48:59.146Z,12.76
2022-10-09T21:51:27.852Z,12.74
2022-10-09T21:53:55.687Z,12.76
2022-10-09T21:56:23.402Z,12.72
2022-10-09T21:58:51.216Z,12.65
2022-10-09T22:01:18.948Z,12.67
2022-10-09T22:03:46.432Z,12.55
2022-10-09T22:06:19.271Z,12.62
2022-10-09T22:08:47.997Z,12.59
2022-10-09T22:11:16.216Z,12.55
2022-10-09T22:13:43.792Z,12.55
2022-10-09T22:16:13.962Z,12.64
2022-10-09T22:18:41.967Z,12.57
2022-10-09T22:21:15.106Z,12.58
2022-10-09T22:23:42.773Z,12.53
2022-10-09T22:26:19.595Z,12.53
2022-10-09T22:28:47.167Z,12.54
2022-10-09T22:31:18.001Z,12.55
2022-10-09T22:33:50.775Z,12.51
2022-10-09T22:36:20.611Z,12.49
2022-10-09T22:38:48.371Z,12.46
2022-10-09T22:41:18.302Z,12.50
2022-10-09T22:43:47.451Z,12.52
2022-10-09T22:46:21.030Z,12.49
2022-10-09T22:48:48.587Z,12.55
2022-10-09T22:51:17.815Z,12.52
2022-10-09T22:53:46.036Z,12.49
2022-10-09T22:56:25.445Z,12.56
2022-10-09T22:58:54.051Z,12.39
2022-10-09T23:01:30.067Z,12.51
2022-10-09T23:03:59.355Z,12.42
2022-10-09T23:06:27.115Z,12.33
2022-10-09T23:08:54.833Z,12.34
2022-10-09T23:11:23.383Z,12.38
2022-10-09T23:13:55.619Z,12.33
2022-10-09T23:16:24.204Z,12.43
2022-10-09T23:18:51.689Z,12.44
2022-10-09T23:21:20.962Z,12.46
2022-10-09T23:23:49.279Z,12.48
2022-10-09T23:26:20.251Z,12.51
2022-10-09T23:28:56.222Z,12.48
2022-10-09T23:31:24.331Z,12.43
2022-10-09T23:33:52.107Z,12.48
2022-10-09T23:36:21.741Z,12.42
2022-10-09T23:38:50.146Z,12.43
2022-10-09T23:41:20.391Z,12.46
2022-10-09T23:43:48.457Z,12.43
2022-10-09T23:46:23.534Z,12.41
2022-10-09T23:48:52.103Z,12.32
2022-10-09T23:51:21.142Z,12.45
2022-10-09T23:53:50.237Z,12.39
2022-10-09T23:56:18.993Z,12.41
2022-10-09T23:58:47.003Z,12.38
